sensor_id;sensor_type;location;lat;lon;timestamp;P1;durP1;ratioP1;P2;durP2;ratioP2
8247;SDS011;4164;49.844;8.830;2022-09-01T00:02:12;6.73;;;5.17;;
8247;SDS011;4164;49.844;8.830;2022-09-01T00:04:41;6.47;;;5.50;;
8247;SDS011;4164;49.844;8.830;2022-09-01T00:07:08;7.27;;;4.90;;
8247;SDS011;4164;49.844;8.830;2022-09-01T00:09:35;7.63;;;5.67;;
8247;SDS011;4164;49.844;8.830;2022-09-01T00:12:02;8.87;;;5.30;;
8247;SDS011;4164;49.844;8.830;2022-09-01T00:14:31;6.47;;;5.30;;
8247;SDS011;4164;49.844;8.830;2022-09-01T00:17:00;7.37;;;5.10;;
8247;SDS011;4164;49.844;8.830;2022-09-01T00:19:27;6.57;;;5.30;;
8247;SDS011;4164;49.844;8.830;2022-09-01T00:21:53;5.57;;;4.70;;
8247;SDS011;4164;49.844;8.830;2022-09-01T00:24:20;7.43;;;4.90;;
8247;SDS011;4164;49.844;8.830;2022-09-01T00:26:46;5.53;;;5.03;;
8247;SDS011;4164;49.844;8.830;2022-09-01T00:29:12;5.50;;;4.90;;
8247;SDS011;4164;49.844;8.830;2022-09-01T00:31:38;8.50;;;5.70;;
8247;SDS011;4164;49.844;8.830;2022-09-01T00:34:04;6.17;;;5.57;;
8247;SDS011;4164;49.844;8.830;2022-09-01T00:36:30;8.37;;;4.87;;
8247;SDS011;4164;49.844;8.830;2022-09-01T00:38:55;5.40;;;4.90;;
8247;SDS011;4164;49.844;8.830;2022-09-01T00:41:22;5.90;;;5.27;;
8247;SDS011;4164;49.844;8.830;2022-09-01T00:43:51;5.33;;;4.83;;
8247;SDS011;4164;49.844;8.830;2022-09-01T00:46:25;7.80;;;5.30;;
8247;SDS011;4164;49.844;8.830;2022-09-01T00:48:58;5.90;;;5.27;;
8247;SDS011;4164;49.844;8.830;2022-09-01T00:51:27;5.13;;;4.60;;
8247;SDS011;4164;49.844;8.830;2022-09-01T00:53:53;5.80;;;5.00;;
8247;SDS011;4164;49.844;8.830;2022-09-01T00:56:21;6.60;;;5.27;;
8247;SDS011;4164;49.844;8.830;2022-09-01T00:58:47;6.03;;;4.77;;
8247;SDS011;4164;49.844;8.830;2022-09-01T01:01:14;7.03;;;4.57;;
8247;SDS011;4164;49.844;8.830;2022-09-01T01:03:40;5.23;;;4.73;;
8247;SDS011;4164;49.844;8.830;2022-09-01T01:06:11;5.33;;;4.83;;
8247;SDS011;4164;49.844;8.830;2022-09-01T01:08:40;7.60;;;5.00;;
8247;SDS011;4164;49.844;8.830;2022-09-01T01:11:13;7.77;;;4.90;;
8247;SDS011;4164;49.844;8.830;2022-09-01T01:13:52;5.00;;;4.60;;
8247;SDS011;4164;49.844;8.830;2022-09-01T01:16:21;8.17;;;5.20;;
8247;SDS011;4164;49.844;8.830;2022-09-01T01:18:48;10.17;;;4.97;;
8247;SDS011;4164;49.844;8.830;2022-09-01T01:21:16;5.40;;;4.90;;
8247;SDS011;4164;49.844;8.830;2022-09-01T01:24:08;5.50;;;5.00;;
8247;SDS011;4164;49.844;8.830;2022-09-01T01:26:45;6.93;;;5.00;;
8247;SDS011;4164;49.844;8.830;2022-09-01T01:29:11;5.47;;;4.83;;
8247;SDS011;4164;49.844;8.830;2022-09-01T01:31:37;6.07;;;4.80;;
8247;SDS011;4164;49.844;8.830;2022-09-01T01:34:03;7.70;;;4.50;;
8247;SDS011;4164;49.844;8.830;2022-09-01T01:36:33;5.40;;;4.90;;
8247;SDS011;4164;49.844;8.830;2022-09-01T01:39:21;5.53;;;4.57;;
8247;SDS011;4164;49.844;8.830;2022-09-01T01:41:49;5.47;;;4.67;;
8247;SDS011;4164;49.844;8.830;2022-09-01T01:44:18;4.93;;;4.37;;
8247;SDS011;4164;49.844;8.830;2022-09-01T01:46:47;4.80;;;4.27;;
8247;SDS011;4164;49.844;8.830;2022-09-01T01:49:16;5.93;;;4.97;;
8247;SDS011;4164;49.844;8.830;2022-09-01T01:51:45;5.20;;;4.70;;
8247;SDS011;4164;49.844;8.830;2022-09-01T01:54:12;7.30;;;4.57;;
8247;SDS011;4164;49.844;8.830;2022-09-01T01:56:38;5.20;;;4.57;;
8247;SDS011;4164;49.844;8.830;2022-09-01T01:59:06;6.40;;;4.93;;
8247;SDS011;4164;49.844;8.830;2022-09-01T02:01:37;5.97;;;4.83;;
8247;SDS011;4164;49.844;8.830;2022-09-01T02:04:03;5.10;;;4.60;;
8247;SDS011;4164;49.844;8.830;2022-09-01T02:06:31;5.77;;;5.07;;
8247;SDS011;4164;49.844;8.830;2022-09-01T02:08:58;7.17;;;4.40;;
8247;SDS011;4164;49.844;8.830;2022-09-01T02:11:27;5.47;;;4.40;;
8247;SDS011;4164;49.844;8.830;2022-09-01T02:13:57;6.77;;;4.40;;
8247;SDS011;4164;49.844;8.830;2022-09-01T02:16:24;5.27;;;4.77;;
8247;SDS011;4164;49.844;8.830;2022-09-01T02:18:52;6.37;;;4.47;;
8247;SDS011;4164;49.844;8.830;2022-09-01T02:21:19;7.87;;;4.90;;
8247;SDS011;4164;49.844;8.830;2022-09-01T02:23:47;4.93;;;4.43;;
8247;SDS011;4164;49.844;8.830;2022-09-01T02:26:25;5.63;;;4.93;;
8247;SDS011;4164;49.844;8.830;2022-09-01T02:29:03;5.97;;;4.57;;
8247;SDS011;4164;49.844;8.830;2022-09-01T02:31:33;5.17;;;4.70;;
8247;SDS011;4164;49.844;8.830;2022-09-01T02:34:04;6.17;;;4.50;;
8247;SDS011;4164;49.844;8.830;2022-09-01T02:36:35;4.97;;;4.37;;
8247;SDS011;4164;49.844;8.830;2022-09-01T02:39:06;4.87;;;4.37;;
8247;SDS011;4164;49.844;8.830;2022-09-01T02:41:32;4.83;;;4.33;;
8247;SDS011;4164;49.844;8.830;2022-09-01T02:43:58;5.23;;;4.67;;
8247;SDS011;4164;49.844;8.830;2022-09-01T02:46:26;5.80;;;5.20;;
8247;SDS011;4164;49.844;8.830;2022-09-01T02:48:54;4.63;;;4.00;;
8247;SDS011;4164;49.844;8.830;2022-09-01T02:51:21;6.30;;;4.40;;
8247;SDS011;4164;49.844;8.830;2022-09-01T02:53:49;5.97;;;4.67;;
8247;SDS011;4164;49.844;8.830;2022-09-01T02:56:16;4.70;;;4.30;;
8247;SDS011;4164;49.844;8.830;2022-09-01T02:58:44;7.10;;;4.93;;
8247;SDS011;4164;49.844;8.830;2022-09-01T03:01:15;6.90;;;4.30;;
8247;SDS011;4164;49.844;8.830;2022-09-01T03:03:49;4.90;;;4.43;;
8247;SDS011;4164;49.844;8.830;2022-09-01T03:06:16;5.07;;;4.57;;
8247;SDS011;4164;49.844;8.830;2022-09-01T03:08:48;5.73;;;4.33;;
8247;SDS011;4164;49.844;8.830;2022-09-01T03:11:18;5.20;;;4.70;;
8247;SDS011;4164;49.844;8.830;2022-09-01T03:13:44;5.53;;;4.70;;
8247;SDS011;4164;49.844;8.830;2022-09-01T03:16:10;5.43;;;4.30;;
8247;SDS011;4164;49.844;8.830;2022-09-01T03:18:36;6.93;;;5.10;;
8247;SDS011;4164;49.844;8.830;2022-09-01T03:21:02;5.87;;;4.90;;
8247;SDS011;4164;49.844;8.830;2022-09-01T03:23:29;5.23;;;4.70;;
8247;SDS011;4164;49.844;8.830;2022-09-01T03:25:56;4.90;;;4.33;;
8247;SDS011;4164;49.844;8.830;2022-09-01T03:28:22;6.73;;;4.90;;
8247;SDS011;4164;49.844;8.830;2022-09-01T03:30:49;5.87;;;4.93;;
8247;SDS011;4164;49.844;8.830;2022-09-01T03:33:17;5.33;;;4.67;;
8247;SDS011;4164;49.844;8.830;2022-09-01T03:35:44;5.80;;;5.10;;
8247;SDS011;4164;49.844;8.830;2022-09-01T03:38:10;6.20;;;5.20;;
8247;SDS011;4164;49.844;8.830;2022-09-01T03:40:38;5.60;;;4.57;;
8247;SDS011;4164;49.844;8.830;2022-09-01T03:43:05;7.17;;;5.57;;
8247;SDS011;4164;49.844;8.830;2022-09-01T03:45:38;11.13;;;5.10;;
8247;SDS011;4164;49.844;8.830;2022-09-01T03:48:05;5.60;;;4.70;;
8247;SDS011;4164;49.844;8.830;2022-09-01T03:50:34;6.60;;;4.83;;
8247;SDS011;4164;49.844;8.830;2022-09-01T03:53:04;5.73;;;4.80;;
8247;SDS011;4164;49.844;8.830;2022-09-01T03:55:31;5.27;;;4.60;;
8247;SDS011;4164;49.844;8.830;2022-09-01T03:58:03;5.80;;;5.20;;
8247;SDS011;4164;49.844;8.830;2022-09-01T04:00:31;5.07;;;4.57;;
8247;SDS011;4164;49.844;8.830;2022-09-01T04:03:08;6.43;;;4.47;;
8247;SDS011;4164;49.844;8.830;2022-09-01T04:05:36;8.40;;;4.50;;
8247;SDS011;4164;49.844;8.830;2022-09-01T04:08:05;4.73;;;4.30;;
8247;SDS011;4164;49.844;8.830;2022-09-01T04:10:35;6.30;;;5.10;;
8247;SDS011;4164;49.844;8.830;2022-09-01T04:13:19;5.67;;;4.53;;
8247;SDS011;4164;49.844;8.830;2022-09-01T04:15:50;6.43;;;4.90;;
8247;SDS011;4164;49.844;8.830;2022-09-01T04:18:16;6.20;;;4.87;;
8247;SDS011;4164;49.844;8.830;2022-09-01T04:20:49;5.63;;;5.03;;
8247;SDS011;4164;49.844;8.830;2022-09-01T04:23:22;7.93;;;4.87;;
8247;SDS011;4164;49.844;8.830;2022-09-01T04:28:35;5.57;;;4.97;;
8247;SDS011;4164;49.844;8.830;2022-09-01T04:31:04;5.77;;;5.13;;
8247;SDS011;4164;49.844;8.830;2022-09-01T04:33:33;6.63;;;4.60;;
8247;SDS011;4164;49.844;8.830;2022-09-01T04:36:22;7.80;;;4.63;;
8247;SDS011;4164;49.844;8.830;2022-09-01T04:38:56;5.80;;;4.50;;
8247;SDS011;4164;49.844;8.830;2022-09-01T04:41:25;8.17;;;5.17;;
8247;SDS011;4164;49.844;8.830;2022-09-01T04:43:56;6.70;;;4.37;;
8247;SDS011;4164;49.844;8.830;2022-09-01T04:46:23;6.00;;;4.87;;
8247;SDS011;4164;49.844;8.830;2022-09-01T04:48:53;6.73;;;4.63;;
8247;SDS011;4164;49.844;8.830;2022-09-01T04:51:20;6.90;;;4.90;;
8247;SDS011;4164;49.844;8.830;2022-09-01T04:53:46;6.00;;;4.60;;
8247;SDS011;4164;49.844;8.830;2022-09-01T04:56:15;6.30;;;5.10;;
8247;SDS011;4164;49.844;8.830;2022-09-01T04:58:43;5.80;;;5.20;;
8247;SDS011;4164;49.844;8.830;2022-09-01T05:01:16;7.17;;;4.83;;
8247;SDS011;4164;49.844;8.830;2022-09-01T05:03:46;8.13;;;4.40;;
8247;SDS011;4164;49.844;8.830;2022-09-01T05:06:18;7.57;;;4.90;;
8247;SDS011;4164;49.844;8.830;2022-09-01T05:08:43;14.50;;;5.30;;
8247;SDS011;4164;49.844;8.830;2022-09-01T05:11:10;8.03;;;5.10;;
8247;SDS011;4164;49.844;8.830;2022-09-01T05:13:37;8.10;;;4.67;;
8247;SDS011;4164;49.844;8.830;2022-09-01T05:16:06;7.17;;;5.33;;
8247;SDS011;4164;49.844;8.830;2022-09-01T05:18:36;5.87;;;5.10;;
8247;SDS011;4164;49.844;8.830;2022-09-01T05:21:04;5.40;;;4.90;;
8247;SDS011;4164;49.844;8.830;2022-09-01T05:23:34;5.87;;;4.57;;
8247;SDS011;4164;49.844;8.830;2022-09-01T05:26:00;9.57;;;5.20;;
8247;SDS011;4164;49.844;8.830;2022-09-01T05:28:27;7.27;;;4.37;;
8247;SDS011;4164;49.844;8.830;2022-09-01T05:30:53;5.50;;;4.50;;
8247;SDS011;4164;49.844;8.830;2022-09-01T05:33:19;7.10;;;4.53;;
8247;SDS011;4164;49.844;8.830;2022-09-01T05:35:55;6.10;;;4.80;;
8247;SDS011;4164;49.844;8.830;2022-09-01T05:38:24;5.60;;;5.00;;
8247;SDS011;4164;49.844;8.830;2022-09-01T05:40:57;5.20;;;4.70;;
8247;SDS011;4164;49.844;8.830;2022-09-01T05:43:27;9.27;;;4.80;;
8247;SDS011;4164;49.844;8.830;2022-09-01T05:45:54;6.80;;;5.20;;
8247;SDS011;4164;49.844;8.830;2022-09-01T05:48:21;8.37;;;5.30;;
8247;SDS011;4164;49.844;8.830;2022-09-01T05:50:47;5.90;;;4.50;;
8247;SDS011;4164;49.844;8.830;2022-09-01T05:53:15;6.33;;;4.63;;
8247;SDS011;4164;49.844;8.830;2022-09-01T05:55:44;5.07;;;4.57;;
8247;SDS011;4164;49.844;8.830;2022-09-01T05:58:11;5.30;;;4.47;;
8247;SDS011;4164;49.844;8.830;2022-09-01T06:00:43;6.10;;;4.63;;
8247;SDS011;4164;49.844;8.830;2022-09-01T06:03:12;7.43;;;4.70;;
8247;SDS011;4164;49.844;8.830;2022-09-01T06:05:38;6.77;;;5.10;;
8247;SDS011;4164;49.844;8.830;2022-09-01T06:08:05;8.33;;;4.67;;
8247;SDS011;4164;49.844;8.830;2022-09-01T06:10:32;5.13;;;4.43;;
8247;SDS011;4164;49.844;8.830;2022-09-01T06:13:01;5.30;;;4.50;;
8247;SDS011;4164;49.844;8.830;2022-09-01T06:15:28;6.50;;;4.30;;
8247;SDS011;4164;49.844;8.830;2022-09-01T06:17:54;7.43;;;4.63;;
8247;SDS011;4164;49.844;8.830;2022-09-01T06:20:20;4.37;;;3.87;;
8247;SDS011;4164;49.844;8.830;2022-09-01T06:22:46;5.63;;;4.30;;
8247;SDS011;4164;49.844;8.830;2022-09-01T06:25:12;6.23;;;3.90;;
8247;SDS011;4164;49.844;8.830;2022-09-01T06:27:41;4.97;;;4.23;;
8247;SDS011;4164;49.844;8.830;2022-09-01T06:30:08;5.47;;;3.87;;
8247;SDS011;4164;49.844;8.830;2022-09-01T06:32:44;5.50;;;3.80;;
8247;SDS011;4164;49.844;8.830;2022-09-01T06:35:11;3.77;;;3.47;;
8247;SDS011;4164;49.844;8.830;2022-09-01T06:37:39;6.67;;;4.10;;
8247;SDS011;4164;49.844;8.830;2022-09-01T06:40:08;5.33;;;3.87;;
8247;SDS011;4164;49.844;8.830;2022-09-01T06:42:41;4.40;;;4.00;;
8247;SDS011;4164;49.844;8.830;2022-09-01T06:45:08;6.50;;;3.60;;
8247;SDS011;4164;49.844;8.830;2022-09-01T06:47:35;4.40;;;4.00;;
8247;SDS011;4164;49.844;8.830;2022-09-01T06:50:01;4.30;;;3.90;;
8247;SDS011;4164;49.844;8.830;2022-09-01T06:52:28;5.67;;;3.80;;
8247;SDS011;4164;49.844;8.830;2022-09-01T06:54:53;7.33;;;3.67;;
8247;SDS011;4164;49.844;8.830;2022-09-01T06:57:19;6.37;;;3.83;;
8247;SDS011;4164;49.844;8.830;2022-09-01T06:59:49;6.53;;;3.60;;
8247;SDS011;4164;49.844;8.830;2022-09-01T07:02:15;4.37;;;3.70;;
8247;SDS011;4164;49.844;8.830;2022-09-01T07:04:42;3.87;;;3.50;;
8247;SDS011;4164;49.844;8.830;2022-09-01T07:07:09;4.80;;;3.60;;
8247;SDS011;4164;49.844;8.830;2022-09-01T07:09:34;3.20;;;2.80;;
8247;SDS011;4164;49.844;8.830;2022-09-01T07:12:00;3.07;;;2.87;;
8247;SDS011;4164;49.844;8.830;2022-09-01T07:14:28;4.23;;;3.00;;
8247;SDS011;4164;49.844;8.830;2022-09-01T07:16:54;3.67;;;3.07;;
8247;SDS011;4164;49.844;8.830;2022-09-01T07:19:21;5.00;;;3.07;;
8247;SDS011;4164;49.844;8.830;2022-09-01T07:21:46;3.13;;;2.60;;
8247;SDS011;4164;49.844;8.830;2022-09-01T07:24:12;3.17;;;2.87;;
8247;SDS011;4164;49.844;8.830;2022-09-01T07:26:42;3.53;;;2.80;;
8247;SDS011;4164;49.844;8.830;2022-09-01T07:29:08;2.57;;;2.37;;
8247;SDS011;4164;49.844;8.830;2022-09-01T07:31:36;3.97;;;2.93;;
8247;SDS011;4164;49.844;8.830;2022-09-01T07:34:05;4.33;;;2.70;;
8247;SDS011;4164;49.844;8.830;2022-09-01T07:36:36;2.70;;;2.40;;
8247;SDS011;4164;49.844;8.830;2022-09-01T07:39:02;7.20;;;2.60;;
8247;SDS011;4164;49.844;8.830;2022-09-01T07:50:22;8.43;;;2.73;;
8247;SDS011;4164;49.844;8.830;2022-09-01T07:52:50;3.10;;;2.37;;
8247;SDS011;4164;49.844;8.830;2022-09-01T07:55:16;3.80;;;2.53;;
8247;SDS011;4164;49.844;8.830;2022-09-01T07:57:42;5.33;;;2.80;;
8247;SDS011;4164;49.844;8.830;2022-09-01T08:00:10;3.13;;;2.50;;
8247;SDS011;4164;49.844;8.830;2022-09-01T08:02:42;4.20;;;2.77;;
8247;SDS011;4164;49.844;8.830;2022-09-01T08:05:08;6.00;;;2.97;;
8247;SDS011;4164;49.844;8.830;2022-09-01T08:07:37;7.53;;;3.23;;
8247;SDS011;4164;49.844;8.830;2022-09-01T08:10:03;2.97;;;2.40;;
8247;SDS011;4164;49.844;8.830;2022-09-01T08:12:30;6.10;;;2.60;;
8247;SDS011;4164;49.844;8.830;2022-09-01T08:14:56;3.80;;;2.50;;
8247;SDS011;4164;49.844;8.830;2022-09-01T08:17:22;3.60;;;2.50;;
8247;SDS011;4164;49.844;8.830;2022-09-01T08:19:47;4.13;;;2.43;;
8247;SDS011;4164;49.844;8.830;2022-09-01T08:22:13;6.27;;;2.97;;
8247;SDS011;4164;49.844;8.830;2022-09-01T08:24:40;3.17;;;2.30;;
8247;SDS011;4164;49.844;8.830;2022-09-01T08:27:06;3.47;;;2.37;;
8247;SDS011;4164;49.844;8.830;2022-09-01T08:29:32;5.37;;;2.53;;
8247;SDS011;4164;49.844;8.830;2022-09-01T08:31:57;4.30;;;2.63;;
8247;SDS011;4164;49.844;8.830;2022-09-01T08:34:23;6.13;;;2.80;;
8247;SDS011;4164;49.844;8.830;2022-09-01T08:36:50;4.17;;;2.50;;
8247;SDS011;4164;49.844;8.830;2022-09-01T08:39:16;3.93;;;2.63;;
8247;SDS011;4164;49.844;8.830;2022-09-01T08:41:55;2.87;;;2.33;;
8247;SDS011;4164;49.844;8.830;2022-09-01T08:44:57;4.03;;;2.83;;
8247;SDS011;4164;49.844;8.830;2022-09-01T08:47:37;2.83;;;2.40;;
8247;SDS011;4164;49.844;8.830;2022-09-01T08:50:03;2.40;;;2.20;;
8247;SDS011;4164;49.844;8.830;2022-09-01T08:52:34;3.77;;;2.40;;
8247;SDS011;4164;49.844;8.830;2022-09-01T08:55:20;3.83;;;2.93;;
8247;SDS011;4164;49.844;8.830;2022-09-01T08:57:58;3.00;;;2.57;;
8247;SDS011;4164;49.844;8.830;2022-09-01T09:00:26;2.70;;;2.50;;
8247;SDS011;4164;49.844;8.830;2022-09-01T09:20:26;4.20;;;2.60;;
8247;SDS011;4164;49.844;8.830;2022-09-01T09:25:24;2.43;;;2.23;;
8247;SDS011;4164;49.844;8.830;2022-09-01T09:27:49;3.23;;;2.40;;
8247;SDS011;4164;49.844;8.830;2022-09-01T09:30:20;2.87;;;2.37;;
8247;SDS011;4164;49.844;8.830;2022-09-01T09:32:53;3.00;;;2.70;;
8247;SDS011;4164;49.844;8.830;2022-09-01T09:43:32;3.20;;;2.43;;
8247;SDS011;4164;49.844;8.830;2022-09-01T09:52:32;5.20;;;2.40;;
8247;SDS011;4164;49.844;8.830;2022-09-01T09:54:33;2.40;;;2.20;;
8247;SDS011;4164;49.844;8.830;2022-09-01T09:59:35;4.53;;;2.97;;
8247;SDS011;4164;49.844;8.830;2022-09-01T10:02:16;4.73;;;3.00;;
8247;SDS011;4164;49.844;8.830;2022-09-01T10:04:46;4.57;;;2.50;;
8247;SDS011;4164;49.844;8.830;2022-09-01T10:09:53;3.47;;;2.20;;
8247;SDS011;4164;49.844;8.830;2022-09-01T10:12:19;2.87;;;2.40;;
8247;SDS011;4164;49.844;8.830;2022-09-01T10:14:54;5.10;;;4.60;;
8247;SDS011;4164;49.844;8.830;2022-09-01T10:17:34;5.30;;;2.60;;
8247;SDS011;4164;49.844;8.830;2022-09-01T10:20:05;4.20;;;2.23;;
8247;SDS011;4164;49.844;8.830;2022-09-01T10:22:35;3.40;;;2.20;;
8247;SDS011;4164;49.844;8.830;2022-09-01T10:25:03;3.07;;;1.80;;
8247;SDS011;4164;49.844;8.830;2022-09-01T10:27:31;5.13;;;2.00;;
8247;SDS011;4164;49.844;8.830;2022-09-01T10:30:05;2.20;;;2.00;;
8247;SDS011;4164;49.844;8.830;2022-09-01T10:32:44;2.30;;;2.10;;
8247;SDS011;4164;49.844;8.830;2022-09-01T10:35:18;2.20;;;1.80;;
8247;SDS011;4164;49.844;8.830;2022-09-01T10:37:50;3.33;;;1.93;;
8247;SDS011;4164;49.844;8.830;2022-09-01T10:42:54;6.33;;;2.10;;
8247;SDS011;4164;49.844;8.830;2022-09-01T10:50:47;3.40;;;2.33;;
8247;SDS011;4164;49.844;8.830;2022-09-01T10:55:59;3.07;;;2.20;;
8247;SDS011;4164;49.844;8.830;2022-09-01T10:58:46;7.70;;;2.40;;
8247;SDS011;4164;49.844;8.830;2022-09-01T11:04:04;2.20;;;2.00;;
8247;SDS011;4164;49.844;8.830;2022-09-01T11:06:31;2.17;;;1.97;;
8247;SDS011;4164;49.844;8.830;2022-09-01T11:09:22;3.50;;;2.00;;
8247;SDS011;4164;49.844;8.830;2022-09-01T11:15:02;2.97;;;2.00;;
8247;SDS011;4164;49.844;8.830;2022-09-01T11:17:30;4.23;;;1.90;;
8247;SDS011;4164;49.844;8.830;2022-09-01T11:20:03;1.83;;;1.70;;
8247;SDS011;4164;49.844;8.830;2022-09-01T11:22:35;9.77;;;2.07;;
8247;SDS011;4164;49.844;8.830;2022-09-01T11:27:54;2.80;;;1.83;;
8247;SDS011;4164;49.844;8.830;2022-09-01T11:30:23;2.00;;;1.90;;
8247;SDS011;4164;49.844;8.830;2022-09-01T11:33:17;2.77;;;1.80;;
8247;SDS011;4164;49.844;8.830;2022-09-01T11:35:57;5.10;;;2.87;;
8247;SDS011;4164;49.844;8.830;2022-09-01T11:38:25;2.13;;;1.80;;
8247;SDS011;4164;49.844;8.830;2022-09-01T11:40:56;3.70;;;2.10;;
8247;SDS011;4164;49.844;8.830;2022-09-01T11:43:22;3.27;;;1.90;;
8247;SDS011;4164;49.844;8.830;2022-09-01T11:45:54;4.63;;;2.23;;
8247;SDS011;4164;49.844;8.830;2022-09-01T11:48:35;2.20;;;2.00;;
8247;SDS011;4164;49.844;8.830;2022-09-01T11:51:01;2.83;;;2.17;;
8247;SDS011;4164;49.844;8.830;2022-09-01T11:53:28;2.60;;;2.10;;
8247;SDS011;4164;49.844;8.830;2022-09-01T11:55:54;4.10;;;1.90;;
8247;SDS011;4164;49.844;8.830;2022-09-01T11:58:35;2.60;;;2.40;;
8247;SDS011;4164;49.844;8.830;2022-09-01T12:01:19;5.60;;;2.07;;
8247;SDS011;4164;49.844;8.830;2022-09-01T12:03:54;4.20;;;2.30;;
8247;SDS011;4164;49.844;8.830;2022-09-01T12:06:21;7.13;;;2.43;;
8247;SDS011;4164;49.844;8.830;2022-09-01T12:09:06;3.23;;;2.00;;
8247;SDS011;4164;49.844;8.830;2022-09-01T12:11:33;3.40;;;2.20;;
8247;SDS011;4164;49.844;8.830;2022-09-01T12:14:01;2.70;;;2.40;;
8247;SDS011;4164;49.844;8.830;2022-09-01T12:16:33;6.57;;;2.77;;
8247;SDS011;4164;49.844;8.830;2022-09-01T12:19:02;2.73;;;2.13;;
8247;SDS011;4164;49.844;8.830;2022-09-01T12:21:30;3.73;;;2.40;;
8247;SDS011;4164;49.844;8.830;2022-09-01T12:24:19;2.30;;;2.10;;
8247;SDS011;4164;49.844;8.830;2022-09-01T12:26:48;10.63;;;2.70;;
8247;SDS011;4164;49.844;8.830;2022-09-01T12:29:15;10.30;;;3.00;;
8247;SDS011;4164;49.844;8.830;2022-09-01T12:31:43;9.77;;;2.70;;
8247;SDS011;4164;49.844;8.830;2022-09-01T12:37:05;3.30;;;2.37;;
8247;SDS011;4164;49.844;8.830;2022-09-01T12:39:41;4.27;;;2.30;;
8247;SDS011;4164;49.844;8.830;2022-09-01T12:47:08;4.67;;;2.17;;
8247;SDS011;4164;49.844;8.830;2022-09-01T12:49:44;2.20;;;2.00;;
8247;SDS011;4164;49.844;8.830;2022-09-01T12:54:39;2.83;;;2.17;;
8247;SDS011;4164;49.844;8.830;2022-09-01T12:57:05;4.07;;;1.90;;
8247;SDS011;4164;49.844;8.830;2022-09-01T12:59:31;2.33;;;1.77;;
8247;SDS011;4164;49.844;8.830;2022-09-01T13:01:56;2.03;;;1.80;;
8247;SDS011;4164;49.844;8.830;2022-09-01T13:04:24;2.80;;;2.07;;
8247;SDS011;4164;49.844;8.830;2022-09-01T13:07:04;3.03;;;2.10;;
8247;SDS011;4164;49.844;8.830;2022-09-01T13:09:31;3.73;;;2.20;;
8247;SDS011;4164;49.844;8.830;2022-09-01T13:12:17;3.20;;;2.10;;
8247;SDS011;4164;49.844;8.830;2022-09-01T13:14:44;2.67;;;2.27;;
8247;SDS011;4164;49.844;8.830;2022-09-01T13:17:10;2.37;;;2.00;;
8247;SDS011;4164;49.844;8.830;2022-09-01T13:19:36;2.80;;;2.13;;
8247;SDS011;4164;49.844;8.830;2022-09-01T13:22:03;2.33;;;1.87;;
8247;SDS011;4164;49.844;8.830;2022-09-01T13:24:29;2.40;;;2.20;;
8247;SDS011;4164;49.844;8.830;2022-09-01T13:26:54;3.43;;;2.20;;
8247;SDS011;4164;49.844;8.830;2022-09-01T13:29:21;2.10;;;1.90;;
8247;SDS011;4164;49.844;8.830;2022-09-01T13:31:47;2.07;;;1.97;;
8247;SDS011;4164;49.844;8.830;2022-09-01T13:34:12;2.43;;;2.00;;
8247;SDS011;4164;49.844;8.830;2022-09-01T13:36:38;2.33;;;2.13;;
8247;SDS011;4164;49.844;8.830;2022-09-01T13:39:04;4.00;;;2.33;;
8247;SDS011;4164;49.844;8.830;2022-09-01T13:41:30;2.20;;;2.00;;
8247;SDS011;4164;49.844;8.830;2022-09-01T13:43:55;3.60;;;1.90;;
8247;SDS011;4164;49.844;8.830;2022-09-01T13:46:21;4.17;;;2.30;;
8247;SDS011;4164;49.844;8.830;2022-09-01T13:48:47;2.80;;;2.10;;
8247;SDS011;4164;49.844;8.830;2022-09-01T13:51:22;3.23;;;2.03;;
8247;SDS011;4164;49.844;8.830;2022-09-01T13:53:50;2.40;;;2.20;;
8247;SDS011;4164;49.844;8.830;2022-09-01T13:56:16;2.93;;;1.90;;
8247;SDS011;4164;49.844;8.830;2022-09-01T13:58:42;6.10;;;2.70;;
8247;SDS011;4164;49.844;8.830;2022-09-01T14:01:07;2.40;;;2.00;;
8247;SDS011;4164;49.844;8.830;2022-09-01T14:03:33;1.83;;;1.73;;
8247;SDS011;4164;49.844;8.830;2022-09-01T14:05:58;2.50;;;2.00;;
8247;SDS011;4164;49.844;8.830;2022-09-01T14:08:24;2.40;;;2.20;;
8247;SDS011;4164;49.844;8.830;2022-09-01T14:10:53;3.53;;;2.20;;
8247;SDS011;4164;49.844;8.830;2022-09-01T14:13:21;4.43;;;2.20;;
8247;SDS011;4164;49.844;8.830;2022-09-01T14:15:48;2.60;;;1.90;;
8247;SDS011;4164;49.844;8.830;2022-09-01T14:18:15;2.07;;;1.97;;
8247;SDS011;4164;49.844;8.830;2022-09-01T14:20:42;1.93;;;1.83;;
8247;SDS011;4164;49.844;8.830;2022-09-01T14:23:13;2.27;;;1.93;;
8247;SDS011;4164;49.844;8.830;2022-09-01T14:25:43;2.13;;;1.90;;
8247;SDS011;4164;49.844;8.830;2022-09-01T14:28:11;2.23;;;1.80;;
8247;SDS011;4164;49.844;8.830;2022-09-01T14:30:38;3.97;;;1.93;;
8247;SDS011;4164;49.844;8.830;2022-09-01T14:33:06;3.40;;;2.17;;
8247;SDS011;4164;49.844;8.830;2022-09-01T14:35:31;3.77;;;2.03;;
8247;SDS011;4164;49.844;8.830;2022-09-01T14:37:58;2.90;;;2.63;;
8247;SDS011;4164;49.844;8.830;2022-09-01T14:40:24;2.43;;;2.00;;
8247;SDS011;4164;49.844;8.830;2022-09-01T14:42:53;3.43;;;2.40;;
8247;SDS011;4164;49.844;8.830;2022-09-01T14:45:20;2.20;;;2.00;;
8247;SDS011;4164;49.844;8.830;2022-09-01T14:47:49;2.30;;;2.10;;
8247;SDS011;4164;49.844;8.830;2022-09-01T14:50:18;2.53;;;2.00;;
8247;SDS011;4164;49.844;8.830;2022-09-01T14:52:45;2.03;;;1.93;;
8247;SDS011;4164;49.844;8.830;2022-09-01T14:55:11;2.10;;;1.90;;
8247;SDS011;4164;49.844;8.830;2022-09-01T14:57:37;2.97;;;2.10;;
8247;SDS011;4164;49.844;8.830;2022-09-01T15:00:04;2.53;;;2.20;;
8247;SDS011;4164;49.844;8.830;2022-09-01T15:02:34;1.90;;;1.70;;
8247;SDS011;4164;49.844;8.830;2022-09-01T15:05:00;1.90;;;1.77;;
8247;SDS011;4164;49.844;8.830;2022-09-01T15:07:26;3.23;;;2.07;;
8247;SDS011;4164;49.844;8.830;2022-09-01T15:09:52;2.03;;;1.83;;
8247;SDS011;4164;49.844;8.830;2022-09-01T15:12:17;4.00;;;2.10;;
8247;SDS011;4164;49.844;8.830;2022-09-01T15:14:43;2.20;;;2.00;;
8247;SDS011;4164;49.844;8.830;2022-09-01T15:17:09;2.20;;;2.00;;
8247;SDS011;4164;49.844;8.830;2022-09-01T15:19:34;4.47;;;2.00;;
8247;SDS011;4164;49.844;8.830;2022-09-01T15:22:00;1.80;;;1.70;;
8247;SDS011;4164;49.844;8.830;2022-09-01T15:24:25;2.93;;;2.10;;
8247;SDS011;4164;49.844;8.830;2022-09-01T15:26:51;7.60;;;2.40;;
8247;SDS011;4164;49.844;8.830;2022-09-01T15:29:17;2.50;;;2.30;;
8247;SDS011;4164;49.844;8.830;2022-09-01T15:31:42;3.83;;;2.20;;
8247;SDS011;4164;49.844;8.830;2022-09-01T15:34:08;2.00;;;1.90;;
8247;SDS011;4164;49.844;8.830;2022-09-01T15:36:35;3.53;;;2.17;;
8247;SDS011;4164;49.844;8.830;2022-09-01T15:39:04;2.20;;;2.00;;
8247;SDS011;4164;49.844;8.830;2022-09-01T15:41:30;3.27;;;2.00;;
8247;SDS011;4164;49.844;8.830;2022-09-01T15:43:57;2.00;;;1.90;;
8247;SDS011;4164;49.844;8.830;2022-09-01T15:46:23;4.30;;;2.10;;
8247;SDS011;4164;49.844;8.830;2022-09-01T15:48:59;2.90;;;2.03;;
8247;SDS011;4164;49.844;8.830;2022-09-01T15:51:28;1.90;;;1.80;;
8247;SDS011;4164;49.844;8.830;2022-09-01T15:53:55;3.03;;;1.60;;
8247;SDS011;4164;49.844;8.830;2022-09-01T15:56:24;2.23;;;1.87;;
8247;SDS011;4164;49.844;8.830;2022-09-01T15:58:50;2.17;;;1.80;;
8247;SDS011;4164;49.844;8.830;2022-09-01T16:01:16;3.70;;;2.13;;
8247;SDS011;4164;49.844;8.830;2022-09-01T16:03:42;2.00;;;1.80;;
8247;SDS011;4164;49.844;8.830;2022-09-01T16:06:08;2.20;;;2.00;;
8247;SDS011;4164;49.844;8.830;2022-09-01T16:08:34;3.10;;;1.77;;
8247;SDS011;4164;49.844;8.830;2022-09-01T16:11:00;2.57;;;1.73;;
8247;SDS011;4164;49.844;8.830;2022-09-01T16:13:33;4.70;;;2.00;;
8247;SDS011;4164;49.844;8.830;2022-09-01T16:16:07;3.27;;;2.00;;
8247;SDS011;4164;49.844;8.830;2022-09-01T16:18:43;2.40;;;2.20;;
8247;SDS011;4164;49.844;8.830;2022-09-01T16:21:42;5.87;;;2.20;;
8247;SDS011;4164;49.844;8.830;2022-09-01T16:24:10;2.53;;;2.00;;
8247;SDS011;4164;49.844;8.830;2022-09-01T16:26:38;2.57;;;1.93;;
8247;SDS011;4164;49.844;8.830;2022-09-01T16:29:07;3.20;;;2.10;;
8247;SDS011;4164;49.844;8.830;2022-09-01T16:31:36;2.30;;;2.10;;
8247;SDS011;4164;49.844;8.830;2022-09-01T16:34:06;2.00;;;1.77;;
8247;SDS011;4164;49.844;8.830;2022-09-01T16:42:51;2.63;;;2.33;;
8247;SDS011;4164;49.844;8.830;2022-09-01T16:56:10;2.30;;;2.10;;
8247;SDS011;4164;49.844;8.830;2022-09-01T17:04:31;8.93;;;2.20;;
8247;SDS011;4164;49.844;8.830;2022-09-01T17:07:25;3.73;;;2.00;;
8247;SDS011;4164;49.844;8.830;2022-09-01T17:10:04;6.00;;;2.13;;
8247;SDS011;4164;49.844;8.830;2022-09-01T17:12:41;4.97;;;2.10;;